sensor_id;sensor_type;location;lat;lon;timestamp;temperature;humidity
27801;DHT22;15181;49.112;11.930;2022-09-11T00:00:36;14.90;99.90
27801;DHT22;15181;49.112;11.930;2022-09-11T00:03:03;14.90;99.90
27801;DHT22;15181;49.112;11.930;2022-09-11T00:05:30;14.90;99.90
27801;DHT22;15181;49.112;11.930;2022-09-11T00:07:58;14.90;99.90
27801;DHT22;15181;49.112;11.930;2022-09-11T00:10:25;14.90;99.90
27801;DHT22;15181;49.112;11.930;2022-09-11T00:12:53;14.90;99.90
27801;DHT22;15181;49.112;11.930;2022-09-11T00:15:20;14.90;99.90
27801;DHT22;15181;49.112;11.930;2022-09-11T00:17:47;14.90;99.90
27801;DHT22;15181;49.112;11.930;2022-09-11T00:20:14;14.90;99.90
27801;DHT22;15181;49.112;11.930;2022-09-11T00:22:40;14.90;99.90
27801;DHT22;15181;49.112;11.930;2022-09-11T00:25:08;14.90;99.90
27801;DHT22;15181;49.112;11.930;2022-09-11T00:27:34;14.90;99.90
27801;DHT22;15181;49.112;11.930;2022-09-11T00:30:03;14.90;99.90
27801;DHT22;15181;49.112;11.930;2022-09-11T00:32:30;14.90;99.90
27801;DHT22;15181;49.112;11.930;2022-09-11T00:34:57;14.90;99.90
27801;DHT22;15181;49.112;11.930;2022-09-11T00:37:24;14.90;99.90
27801;DHT22;15181;49.112;11.930;2022-09-11T00:39:51;14.90;99.90
27801;DHT22;15181;49.112;11.930;2022-09-11T00:42:18;14.90;99.90
27801;DHT22;15181;49.112;11.930;2022-09-11T00:45:00;14.90;99.90
27801;DHT22;15181;49.112;11.930;2022-09-11T00:47:29;14.90;99.90
27801;DHT22;15181;49.112;11.930;2022-09-11T00:50:05;14.90;99.90
27801;DHT22;15181;49.112;11.930;2022-09-11T00:52:36;14.90;99.90
27801;DHT22;15181;49.112;11.930;2022-09-11T00:55:06;14.90;99.90
27801;DHT22;15181;49.112;11.930;2022-09-11T00:57:37;14.90;99.90
27801;DHT22;15181;49.112;11.930;2022-09-11T01:00:06;14.90;99.90
27801;DHT22;15181;49.112;11.930;2022-09-11T01:02:36;14.90;99.90
27801;DHT22;15181;49.112;11.930;2022-09-11T01:05:05;14.90;99.90
27801;DHT22;15181;49.112;11.930;2022-09-11T01:07:35;14.90;99.90
27801;DHT22;15181;49.112;11.930;2022-09-11T01:10:02;14.90;99.90
27801;DHT22;15181;49.112;11.930;2022-09-11T01:12:37;14.90;99.90
27801;DHT22;15181;49.112;11.930;2022-09-11T01:15:14;14.80;99.90
27801;DHT22;15181;49.112;11.930;2022-09-11T01:17:49;14.90;99.90
27801;DHT22;15181;49.112;11.930;2022-09-11T01:20:24;14.80;99.90
27801;DHT22;15181;49.112;11.930;2022-09-11T01:23:04;14.80;99.90
27801;DHT22;15181;49.112;11.930;2022-09-11T01:25:50;14.80;99.90
27801;DHT22;15181;49.112;11.930;2022-09-11T01:28:24;14.80;99.90
27801;DHT22;15181;49.112;11.930;2022-09-11T01:30:56;14.80;99.90
27801;DHT22;15181;49.112;11.930;2022-09-11T01:33:29;14.80;99.90
27801;DHT22;15181;49.112;11.930;2022-09-11T01:36:04;14.90;99.90
27801;DHT22;15181;49.112;11.930;2022-09-11T01:38:34;14.80;99.90
27801;DHT22;15181;49.112;11.930;2022-09-11T01:41:06;14.80;99.90
27801;DHT22;15181;49.112;11.930;2022-09-11T01:43:40;14.70;99.90
27801;DHT22;15181;49.112;11.930;2022-09-11T01:46:08;14.70;99.90
27801;DHT22;15181;49.112;11.930;2022-09-11T01:48:43;14.70;99.90
27801;DHT22;15181;49.112;11.930;2022-09-11T01:51:13;14.70;99.90
27801;DHT22;15181;49.112;11.930;2022-09-11T01:53:44;14.70;99.90
27801;DHT22;15181;49.112;11.930;2022-09-11T01:56:17;14.70;99.90
27801;DHT22;15181;49.112;11.930;2022-09-11T01:58:47;14.60;99.90
27801;DHT22;15181;49.112;11.930;2022-09-11T02:01:20;14.60;99.90
27801;DHT22;15181;49.112;11.930;2022-09-11T02:03:51;14.60;99.90
27801;DHT22;15181;49.112;11.930;2022-09-11T02:06:22;14.60;99.90
27801;DHT22;15181;49.112;11.930;2022-09-11T02:08:54;14.60;99.90
27801;DHT22;15181;49.112;11.930;2022-09-11T02:11:23;14.60;99.90
27801;DHT22;15181;49.112;11.930;2022-09-11T02:13:56;14.60;99.90
27801;DHT22;15181;49.112;11.930;2022-09-11T02:16:33;14.60;99.90
27801;DHT22;15181;49.112;11.930;2022-09-11T02:19:06;14.60;99.90
27801;DHT22;15181;49.112;11.930;2022-09-11T02:21:35;14.60;99.90
27801;DHT22;15181;49.112;11.930;2022-09-11T02:24:02;14.60;99.90
27801;DHT22;15181;49.112;11.930;2022-09-11T02:26:33;14.60;99.90
27801;DHT22;15181;49.112;11.930;2022-09-11T02:29:04;14.60;99.90
27801;DHT22;15181;49.112;11.930;2022-09-11T02:31:32;14.50;99.90
27801;DHT22;15181;49.112;11.930;2022-09-11T02:33:59;14.50;99.90
27801;DHT22;15181;49.112;11.930;2022-09-11T02:36:54;14.60;99.90
27801;DHT22;15181;49.112;11.930;2022-09-11T02:39:38;14.60;99.90
27801;DHT22;15181;49.112;11.930;2022-09-11T02:42:16;14.60;99.90
27801;DHT22;15181;49.112;11.930;2022-09-11T02:44:53;14.50;99.90
27801;DHT22;15181;49.112;11.930;2022-09-11T02:47:30;14.50;99.90
27801;DHT22;15181;49.112;11.930;2022-09-11T02:50:09;14.50;99.90
27801;DHT22;15181;49.112;11.930;2022-09-11T02:52:46;14.50;99.90
27801;DHT22;15181;49.112;11.930;2022-09-11T02:55:19;14.50;99.90
27801;DHT22;15181;49.112;11.930;2022-09-11T02:57:53;14.50;99.90
27801;DHT22;15181;49.112;11.930;2022-09-11T03:00:24;14.50;99.90
27801;DHT22;15181;49.112;11.930;2022-09-11T03:02:51;14.50;99.90
27801;DHT22;15181;49.112;11.930;2022-09-11T03:05:18;14.50;99.90
27801;DHT22;15181;49.112;11.930;2022-09-11T03:07:46;14.50;99.90
27801;DHT22;15181;49.112;11.930;2022-09-11T03:10:13;14.50;99.90
27801;DHT22;15181;49.112;11.930;2022-09-11T03:12:39;14.50;99.90
27801;DHT22;15181;49.112;11.930;2022-09-11T03:15:07;14.50;99.90
27801;DHT22;15181;49.112;11.930;2022-09-11T03:17:37;14.50;99.90
27801;DHT22;15181;49.112;11.930;2022-09-11T03:20:05;14.50;99.90
27801;DHT22;15181;49.112;11.930;2022-09-11T03:22:32;14.50;99.90
27801;DHT22;15181;49.112;11.930;2022-09-11T03:24:59;14.50;99.90
27801;DHT22;15181;49.112;11.930;2022-09-11T03:27:25;14.50;99.90
27801;DHT22;15181;49.112;11.930;2022-09-11T03:29:52;14.50;99.90
27801;DHT22;15181;49.112;11.930;2022-09-11T03:32:20;14.50;99.90
27801;DHT22;15181;49.112;11.930;2022-09-11T03:34:49;14.60;99.90
27801;DHT22;15181;49.112;11.930;2022-09-11T03:37:15;14.60;99.90
27801;DHT22;15181;49.112;11.930;2022-09-11T03:39:42;14.60;99.90
27801;DHT22;15181;49.112;11.930;2022-09-11T03:42:09;14.60;99.90
27801;DHT22;15181;49.112;11.930;2022-09-11T03:44:37;14.60;99.90
27801;DHT22;15181;49.112;11.930;2022-09-11T03:47:05;14.60;99.90
27801;DHT22;15181;49.112;11.930;2022-09-11T03:49:32;14.60;99.90
27801;DHT22;15181;49.112;11.930;2022-09-11T03:52:01;14.60;99.90
27801;DHT22;15181;49.112;11.930;2022-09-11T03:54:28;14.60;99.90
27801;DHT22;15181;49.112;11.930;2022-09-11T03:56:56;14.60;99.90
27801;DHT22;15181;49.112;11.930;2022-09-11T03:59:24;14.70;99.90
27801;DHT22;15181;49.112;11.930;2022-09-11T04:01:51;14.60;99.90
27801;DHT22;15181;49.112;11.930;2022-09-11T04:04:18;14.60;99.90
27801;DHT22;15181;49.112;11.930;2022-09-11T04:06:45;14.50;99.90
27801;DHT22;15181;49.112;11.930;2022-09-11T04:09:13;14.60;99.90
27801;DHT22;15181;49.112;11.930;2022-09-11T04:11:40;14.50;99.90
27801;DHT22;15181;49.112;11.930;2022-09-11T04:14:07;14.60;99.90
27801;DHT22;15181;49.112;11.930;2022-09-11T04:16:34;14.60;99.90
27801;DHT22;15181;49.112;11.930;2022-09-11T04:19:01;14.60;99.90
27801;DHT22;15181;49.112;11.930;2022-09-11T04:21:28;14.60;99.90
27801;DHT22;15181;49.112;11.930;2022-09-11T04:23:57;14.60;99.90
27801;DHT22;15181;49.112;11.930;2022-09-11T04:26:27;14.60;99.90
27801;DHT22;15181;49.112;11.930;2022-09-11T04:28:54;14.60;99.90
27801;DHT22;15181;49.112;11.930;2022-09-11T04:31:21;14.60;99.90
27801;DHT22;15181;49.112;11.930;2022-09-11T04:33:48;14.60;99.90
27801;DHT22;15181;49.112;11.930;2022-09-11T04:36:17;14.60;99.90
27801;DHT22;15181;49.112;11.930;2022-09-11T04:38:44;14.60;99.90
27801;DHT22;15181;49.112;11.930;2022-09-11T04:41:12;14.60;99.90
27801;DHT22;15181;49.112;11.930;2022-09-11T04:43:41;14.60;99.90
27801;DHT22;15181;49.112;11.930;2022-09-11T04:46:10;14.60;99.90
27801;DHT22;15181;49.112;11.930;2022-09-11T04:48:42;14.60;99.90
27801;DHT22;15181;49.112;11.930;2022-09-11T04:51:09;14.50;99.90
27801;DHT22;15181;49.112;11.930;2022-09-11T04:53:36;14.50;99.90
27801;DHT22;15181;49.112;11.930;2022-09-11T04:56:04;14.50;99.90
27801;DHT22;15181;49.112;11.930;2022-09-11T04:58:32;14.50;99.90
27801;DHT22;15181;49.112;11.930;2022-09-11T05:01:00;14.50;99.90
27801;DHT22;15181;49.112;11.930;2022-09-11T05:03:27;14.50;99.90
27801;DHT22;15181;49.112;11.930;2022-09-11T05:05:54;14.50;99.90
27801;DHT22;15181;49.112;11.930;2022-09-11T05:08:23;14.50;99.90
27801;DHT22;15181;49.112;11.930;2022-09-11T05:10:50;14.50;99.90
27801;DHT22;15181;49.112;11.930;2022-09-11T05:13:17;14.50;99.90
27801;DHT22;15181;49.112;11.930;2022-09-11T05:15:44;14.50;99.90
27801;DHT22;15181;49.112;11.930;2022-09-11T05:18:12;14.50;99.90
27801;DHT22;15181;49.112;11.930;2022-09-11T05:20:39;14.50;99.90
27801;DHT22;15181;49.112;11.930;2022-09-11T05:23:06;14.50;99.90
27801;DHT22;15181;49.112;11.930;2022-09-11T05:25:32;14.50;99.90
27801;DHT22;15181;49.112;11.930;2022-09-11T05:28:02;14.50;99.90
27801;DHT22;15181;49.112;11.930;2022-09-11T05:30:29;14.50;99.90
27801;DHT22;15181;49.112;11.930;2022-09-11T05:32:55;14.50;99.90
27801;DHT22;15181;49.112;11.930;2022-09-11T05:35:23;14.60;99.90
27801;DHT22;15181;49.112;11.930;2022-09-11T05:37:50;14.60;99.90
27801;DHT22;15181;49.112;11.930;2022-09-11T05:40:17;14.60;99.90
27801;DHT22;15181;49.112;11.930;2022-09-11T05:42:44;14.60;99.90
27801;DHT22;15181;49.112;11.930;2022-09-11T05:45:11;14.60;99.90
27801;DHT22;15181;49.112;11.930;2022-09-11T05:47:37;14.70;99.90
27801;DHT22;15181;49.112;11.930;2022-09-11T05:50:05;14.70;99.90
27801;DHT22;15181;49.112;11.930;2022-09-11T05:52:34;14.70;99.90
27801;DHT22;15181;49.112;11.930;2022-09-11T05:55:00;14.80;99.90
27801;DHT22;15181;49.112;11.930;2022-09-11T05:57:27;14.80;99.90
27801;DHT22;15181;49.112;11.930;2022-09-11T05:59:54;14.80;99.90
27801;DHT22;15181;49.112;11.930;2022-09-11T06:02:21;14.90;99.90
27801;DHT22;15181;49.112;11.930;2022-09-11T06:04:47;14.90;99.90
27801;DHT22;15181;49.112;11.930;2022-09-11T06:07:14;14.90;99.90
27801;DHT22;15181;49.112;11.930;2022-09-11T06:09:42;14.90;99.90
27801;DHT22;15181;49.112;11.930;2022-09-11T06:12:09;15.00;99.90
27801;DHT22;15181;49.112;11.930;2022-09-11T06:14:37;15.00;99.90
27801;DHT22;15181;49.112;11.930;2022-09-11T06:17:04;15.00;99.90
27801;DHT22;15181;49.112;11.930;2022-09-11T06:19:31;15.00;99.90
27801;DHT22;15181;49.112;11.930;2022-09-11T06:21:58;15.00;99.90
27801;DHT22;15181;49.112;11.930;2022-09-11T06:24:24;15.00;99.90
27801;DHT22;15181;49.112;11.930;2022-09-11T06:26:53;15.10;99.90
27801;DHT22;15181;49.112;11.930;2022-09-11T06:29:20;15.20;99.90
27801;DHT22;15181;49.112;11.930;2022-09-11T06:31:47;15.20;99.90
27801;DHT22;15181;49.112;11.930;2022-09-11T06:34:16;15.20;99.90
27801;DHT22;15181;49.112;11.930;2022-09-11T06:36:44;15.20;99.90
27801;DHT22;15181;49.112;11.930;2022-09-11T06:39:11;15.10;99.90
27801;DHT22;15181;49.112;11.930;2022-09-11T06:41:37;15.20;99.90
27801;DHT22;15181;49.112;11.930;2022-09-11T06:44:06;15.10;99.90
27801;DHT22;15181;49.112;11.930;2022-09-11T06:46:34;15.10;99.90
27801;DHT22;15181;49.112;11.930;2022-09-11T06:49:01;15.10;99.90
27801;DHT22;15181;49.112;11.930;2022-09-11T06:51:28;15.00;99.90
27801;DHT22;15181;49.112;11.930;2022-09-11T06:53:56;15.10;99.90
27801;DHT22;15181;49.112;11.930;2022-09-11T06:56:25;15.20;99.90
27801;DHT22;15181;49.112;11.930;2022-09-11T06:58:52;15.20;99.90
27801;DHT22;15181;49.112;11.930;2022-09-11T07:01:21;15.30;99.90
27801;DHT22;15181;49.112;11.930;2022-09-11T07:03:49;15.30;99.90
27801;DHT22;15181;49.112;11.930;2022-09-11T07:06:18;15.40;99.90
27801;DHT22;15181;49.112;11.930;2022-09-11T07:08:49;15.30;99.90
27801;DHT22;15181;49.112;11.930;2022-09-11T07:11:16;15.40;99.90
27801;DHT22;15181;49.112;11.930;2022-09-11T07:13:44;15.40;99.90
27801;DHT22;15181;49.112;11.930;2022-09-11T07:16:11;15.50;99.90
27801;DHT22;15181;49.112;11.930;2022-09-11T07:18:41;15.70;99.90
27801;DHT22;15181;49.112;11.930;2022-09-11T07:21:10;15.80;99.90
27801;DHT22;15181;49.112;11.930;2022-09-11T07:23:37;15.90;99.90
27801;DHT22;15181;49.112;11.930;2022-09-11T07:26:06;16.00;99.90
27801;DHT22;15181;49.112;11.930;2022-09-11T07:28:34;16.10;99.90
27801;DHT22;15181;49.112;11.930;2022-09-11T07:31:03;16.00;99.90
27801;DHT22;15181;49.112;11.930;2022-09-11T07:33:30;16.10;99.90
27801;DHT22;15181;49.112;11.930;2022-09-11T07:35:59;16.30;99.90
27801;DHT22;15181;49.112;11.930;2022-09-11T07:38:28;16.50;99.90
27801;DHT22;15181;49.112;11.930;2022-09-11T07:40:55;16.80;99.90
27801;DHT22;15181;49.112;11.930;2022-09-11T07:43:22;17.00;99.90
27801;DHT22;15181;49.112;11.930;2022-09-11T07:45:52;17.20;99.90
27801;DHT22;15181;49.112;11.930;2022-09-11T07:48:19;17.00;99.90
27801;DHT22;15181;49.112;11.930;2022-09-11T07:50:54;16.90;99.90
27801;DHT22;15181;49.112;11.930;2022-09-11T07:53:23;16.80;99.90
27801;DHT22;15181;49.112;11.930;2022-09-11T07:55:50;16.70;99.90
27801;DHT22;15181;49.112;11.930;2022-09-11T07:58:16;16.70;99.90
27801;DHT22;15181;49.112;11.930;2022-09-11T08:00:43;16.70;99.90
27801;DHT22;15181;49.112;11.930;2022-09-11T08:03:10;16.80;99.90
27801;DHT22;15181;49.112;11.930;2022-09-11T08:05:37;16.70;99.90
27801;DHT22;15181;49.112;11.930;2022-09-11T08:08:04;16.70;99.90
27801;DHT22;15181;49.112;11.930;2022-09-11T08:10:35;16.70;99.90
27801;DHT22;15181;49.112;11.930;2022-09-11T08:13:05;16.70;99.90
27801;DHT22;15181;49.112;11.930;2022-09-11T08:15:32;16.60;99.90
27801;DHT22;15181;49.112;11.930;2022-09-11T08:18:00;16.60;99.90
27801;DHT22;15181;49.112;11.930;2022-09-11T08:20:26;16.80;99.90
27801;DHT22;15181;49.112;11.930;2022-09-11T08:22:53;16.70;99.90
27801;DHT22;15181;49.112;11.930;2022-09-11T08:25:20;16.60;99.90
27801;DHT22;15181;49.112;11.930;2022-09-11T08:27:49;16.60;99.90
27801;DHT22;15181;49.112;11.930;2022-09-11T08:30:17;16.70;99.90
27801;DHT22;15181;49.112;11.930;2022-09-11T08:32:44;16.80;99.90
27801;DHT22;15181;49.112;11.930;2022-09-11T08:35:11;16.70;99.90
27801;DHT22;15181;49.112;11.930;2022-09-11T08:37:38;16.80;99.90
27801;DHT22;15181;49.112;11.930;2022-09-11T08:40:07;16.80;99.90
27801;DHT22;15181;49.112;11.930;2022-09-11T08:42:34;16.90;99.90
27801;DHT22;15181;49.112;11.930;2022-09-11T08:45:04;17.00;99.90
27801;DHT22;15181;49.112;11.930;2022-09-11T08:47:35;17.00;99.90
27801;DHT22;15181;49.112;11.930;2022-09-11T08:50:05;17.00;99.90
27801;DHT22;15181;49.112;11.930;2022-09-11T08:52:34;17.20;99.90
27801;DHT22;15181;49.112;11.930;2022-09-11T08:55:02;17.40;99.90
27801;DHT22;15181;49.112;11.930;2022-09-11T08:57:36;17.30;99.90
27801;DHT22;15181;49.112;11.930;2022-09-11T09:00:11;17.20;99.90
27801;DHT22;15181;49.112;11.930;2022-09-11T09:02:58;17.20;99.90
27801;DHT22;15181;49.112;11.930;2022-09-11T09:05:32;17.20;99.90
27801;DHT22;15181;49.112;11.930;2022-09-11T09:08:17;17.30;99.90
27801;DHT22;15181;49.112;11.930;2022-09-11T09:10:50;17.30;99.90
27801;DHT22;15181;49.112;11.930;2022-09-11T09:13:35;17.30;99.90
27801;DHT22;15181;49.112;11.930;2022-09-11T09:16:20;17.10;99.90
27801;DHT22;15181;49.112;11.930;2022-09-11T09:18:52;16.90;99.90
27801;DHT22;15181;49.112;11.930;2022-09-11T09:21:24;16.90;99.90
27801;DHT22;15181;49.112;11.930;2022-09-11T09:23:54;16.70;99.90
27801;DHT22;15181;49.112;11.930;2022-09-11T09:26:25;16.60;99.90
27801;DHT22;15181;49.112;11.930;2022-09-11T09:28:56;16.60;99.90
27801;DHT22;15181;49.112;11.930;2022-09-11T09:31:29;16.70;99.90
27801;DHT22;15181;49.112;11.930;2022-09-11T09:34:01;16.80;99.90
27801;DHT22;15181;49.112;11.930;2022-09-11T09:36:33;17.00;99.90
27801;DHT22;15181;49.112;11.930;2022-09-11T09:39:09;17.10;99.90
27801;DHT22;15181;49.112;11.930;2022-09-11T09:41:57;17.30;99.90
27801;DHT22;15181;49.112;11.930;2022-09-11T09:44:40;17.40;99.90
27801;DHT22;15181;49.112;11.930;2022-09-11T09:47:10;17.50;99.90
27801;DHT22;15181;49.112;11.930;2022-09-11T09:49:38;17.70;99.90
27801;DHT22;15181;49.112;11.930;2022-09-11T09:52:15;17.80;99.90
27801;DHT22;15181;49.112;11.930;2022-09-11T09:54:43;18.00;99.90
27801;DHT22;15181;49.112;11.930;2022-09-11T09:57:11;18.00;99.90
27801;DHT22;15181;49.112;11.930;2022-09-11T09:59:40;18.00;99.90
27801;DHT22;15181;49.112;11.930;2022-09-11T10:02:10;18.00;99.90
27801;DHT22;15181;49.112;11.930;2022-09-11T10:04:37;18.00;99.90
27801;DHT22;15181;49.112;11.930;2022-09-11T10:07:06;18.00;99.90
27801;DHT22;15181;49.112;11.930;2022-09-11T10:09:36;18.10;99.90
27801;DHT22;15181;49.112;11.930;2022-09-11T10:12:14;18.00;99.90
27801;DHT22;15181;49.112;11.930;2022-09-11T10:14:44;18.00;99.90
27801;DHT22;15181;49.112;11.930;2022-09-11T10:17:21;18.00;99.90
27801;DHT22;15181;49.112;11.930;2022-09-11T10:19:49;18.10;99.90
27801;DHT22;15181;49.112;11.930;2022-09-11T10:22:27;18.10;99.90
27801;DHT22;15181;49.112;11.930;2022-09-11T10:24:59;18.20;99.90
27801;DHT22;15181;49.112;11.930;2022-09-11T10:27:27;18.30;99.90
27801;DHT22;15181;49.112;11.930;2022-09-11T10:29:56;18.30;99.90
27801;DHT22;15181;49.112;11.930;2022-09-11T10:32:25;18.50;99.90
27801;DHT22;15181;49.112;11.930;2022-09-11T10:34:53;18.60;99.90
27801;DHT22;15181;49.112;11.930;2022-09-11T10:37:23;18.60;99.90
27801;DHT22;15181;49.112;11.930;2022-09-11T10:39:59;18.70;99.90
27801;DHT22;15181;49.112;11.930;2022-09-11T10:42:29;18.70;99.90
27801;DHT22;15181;49.112;11.930;2022-09-11T10:45:04;18.80;99.90
27801;DHT22;15181;49.112;11.930;2022-09-11T10:47:34;18.80;99.90
27801;DHT22;15181;49.112;11.930;2022-09-11T10:50:21;18.70;99.90
27801;DHT22;15181;49.112;11.930;2022-09-11T10:53:01;18.60;99.90
27801;DHT22;15181;49.112;11.930;2022-09-11T10:55:31;18.50;99.90
27801;DHT22;15181;49.112;11.930;2022-09-11T10:58:04;18.70;99.90
27801;DHT22;15181;49.112;11.930;2022-09-11T11:00:33;18.70;99.90
27801;DHT22;15181;49.112;11.930;2022-09-11T11:03:08;18.90;99.90
27801;DHT22;15181;49.112;11.930;2022-09-11T11:05:45;18.90;99.90
27801;DHT22;15181;49.112;11.930;2022-09-11T11:11:15;19.00;99.90
27801;DHT22;15181;49.112;11.930;2022-09-11T11:14:07;18.90;99.90
27801;DHT22;15181;49.112;11.930;2022-09-11T11:16:47;19.00;99.90
27801;DHT22;15181;49.112;11.930;2022-09-11T11:19:39;19.20;99.90
27801;DHT22;15181;49.112;11.930;2022-09-11T11:22:17;19.20;99.90
27801;DHT22;15181;49.112;11.930;2022-09-11T11:24:57;19.20;99.90
27801;DHT22;15181;49.112;11.930;2022-09-11T11:27:48;19.20;99.90
27801;DHT22;15181;49.112;11.930;2022-09-11T11:30:22;19.20;99.90
27801;DHT22;15181;49.112;11.930;2022-09-11T11:33:21;19.20;99.90
27801;DHT22;15181;49.112;11.930;2022-09-11T11:36:00;19.00;99.90
27801;DHT22;15181;49.112;11.930;2022-09-11T11:38:31;19.00;99.90
27801;DHT22;15181;49.112;11.930;2022-09-11T11:41:05;19.00;99.90
27801;DHT22;15181;49.112;11.930;2022-09-11T11:43:38;19.00;99.90
27801;DHT22;15181;49.112;11.930;2022-09-11T11:46:11;19.20;99.90
27801;DHT22;15181;49.112;11.930;2022-09-11T11:48:44;19.30;99.90
27801;DHT22;15181;49.112;11.930;2022-09-11T11:51:17;19.40;99.90
27801;DHT22;15181;49.112;11.930;2022-09-11T11:53:50;19.40;99.90
27801;DHT22;15181;49.112;11.930;2022-09-11T11:56:27;19.40;99.90
27801;DHT22;15181;49.112;11.930;2022-09-11T11:59:02;19.50;99.90
27801;DHT22;15181;49.112;11.930;2022-09-11T12:01:37;19.50;99.90
27801;DHT22;15181;49.112;11.930;2022-09-11T12:04:15;19.60;99.90
27801;DHT22;15181;49.112;11.930;2022-09-11T12:06:44;19.40;99.90
27801;DHT22;15181;49.112;11.930;2022-09-11T12:09:15;19.50;99.90
27801;DHT22;15181;49.112;11.930;2022-09-11T12:11:45;19.40;99.90
27801;DHT22;15181;49.112;11.930;2022-09-11T12:14:24;19.50;99.90
27801;DHT22;15181;49.112;11.930;2022-09-11T12:16:53;19.40;99.90
27801;DHT22;15181;49.112;11.930;2022-09-11T12:19:21;19.30;99.90
27801;DHT22;15181;49.112;11.930;2022-09-11T12:22:11;19.10;99.90
27801;DHT22;15181;49.112;11.930;2022-09-11T12:24:53;19.30;99.90
27801;DHT22;15181;49.112;11.930;2022-09-11T12:27:49;19.20;99.90
27801;DHT22;15181;49.112;11.930;2022-09-11T12:30:22;19.40;99.90
27801;DHT22;15181;49.112;11.930;2022-09-11T12:32:50;19.50;99.90
27801;DHT22;15181;49.112;11.930;2022-09-11T12:35:39;19.70;99.90
27801;DHT22;15181;49.112;11.930;2022-09-11T12:38:19;19.80;99.90
27801;DHT22;15181;49.112;11.930;2022-09-11T12:40:51;20.10;99.90
27801;DHT22;15181;49.112;11.930;2022-09-11T12:43:43;20.30;99.90
27801;DHT22;15181;49.112;11.930;2022-09-11T12:49:07;20.50;99.90
27801;DHT22;15181;49.112;11.930;2022-09-11T12:51:36;20.70;99.90
27801;DHT22;15181;49.112;11.930;2022-09-11T12:54:13;20.90;99.90
27801;DHT22;15181;49.112;11.930;2022-09-11T12:56:45;20.90;99.90
27801;DHT22;15181;49.112;11.930;2022-09-11T12:59:21;20.90;99.90
27801;DHT22;15181;49.112;11.930;2022-09-11T13:01:48;20.50;99.90
27801;DHT22;15181;49.112;11.930;2022-09-11T13:04:20;20.50;99.90
27801;DHT22;15181;49.112;11.930;2022-09-11T13:06:50;20.60;99.90
27801;DHT22;15181;49.112;11.930;2022-09-11T13:09:26;20.70;99.90
27801;DHT22;15181;49.112;11.930;2022-09-11T13:11:54;20.90;99.90
27801;DHT22;15181;49.112;11.930;2022-09-11T13:14:45;20.90;99.90
27801;DHT22;15181;49.112;11.930;2022-09-11T13:17:14;20.70;99.90
27801;DHT22;15181;49.112;11.930;2022-09-11T13:19:43;20.70;99.90
27801;DHT22;15181;49.112;11.930;2022-09-11T13:22:23;20.80;99.90
27801;DHT22;15181;49.112;11.930;2022-09-11T13:25:03;21.00;99.90
27801;DHT22;15181;49.112;11.930;2022-09-11T13:27:31;21.00;99.90
27801;DHT22;15181;49.112;11.930;2022-09-11T13:30:01;20.80;99.90
27801;DHT22;15181;49.112;11.930;2022-09-11T13:32:28;20.60;99.90
27801;DHT22;15181;49.112;11.930;2022-09-11T13:34:57;20.40;99.90
27801;DHT22;15181;49.112;11.930;2022-09-11T13:37:34;20.40;99.90
27801;DHT22;15181;49.112;11.930;2022-09-11T13:40:05;20.40;99.90
27801;DHT22;15181;49.112;11.930;2022-09-11T13:42:34;20.50;99.90
27801;DHT22;15181;49.112;11.930;2022-09-11T13:45:02;20.30;99.90
27801;DHT22;15181;49.112;11.930;2022-09-11T13:47:29;20.30;99.90
27801;DHT22;15181;49.112;11.930;2022-09-11T13:49:59;20.30;99.90
27801;DHT22;15181;49.112;11.930;2022-09-11T13:52:30;20.30;99.90
27801;DHT22;15181;49.112;11.930;2022-09-11T13:54:59;20.20;99.90
27801;DHT22;15181;49.112;11.930;2022-09-11T13:57:29;19.90;99.90
27801;DHT22;15181;49.112;11.930;2022-09-11T13:59:57;19.80;99.90
27801;DHT22;15181;49.112;11.930;2022-09-11T14:05:13;19.80;99.90
27801;DHT22;15181;49.112;11.930;2022-09-11T14:07:44;19.50;99.90
27801;DHT22;15181;49.112;11.930;2022-09-11T14:10:20;19.70;99.90
27801;DHT22;15181;49.112;11.930;2022-09-11T14:12:52;19.80;99.90
27801;DHT22;15181;49.112;11.930;2022-09-11T14:15:27;19.90;99.90
27801;DHT22;15181;49.112;11.930;2022-09-11T14:17:55;20.00;99.90
27801;DHT22;15181;49.112;11.930;2022-09-11T14:20:21;19.80;99.90
27801;DHT22;15181;49.112;11.930;2022-09-11T14:22:52;19.90;99.90
27801;DHT22;15181;49.112;11.930;2022-09-11T14:25:22;19.80;99.90
27801;DHT22;15181;49.112;11.930;2022-09-11T14:27:50;19.90;99.90
27801;DHT22;15181;49.112;11.930;2022-09-11T14:30:34;19.80;99.90
27801;DHT22;15181;49.112;11.930;2022-09-11T14:33:16;19.90;99.90
27801;DHT22;15181;49.112;11.930;2022-09-11T14:35:46;19.80;99.90
27801;DHT22;15181;49.112;11.930;2022-09-11T14:38:15;19.80;99.90
27801;DHT22;15181;49.112;11.930;2022-09-11T14:40:47;19.90;99.90
27801;DHT22;15181;49.112;11.930;2022-09-11T14:43:18;19.70;99.90
27801;DHT22;15181;49.112;11.930;2022-09-11T14:45:48;19.70;99.90
27801;DHT22;15181;49.112;11.930;2022-09-11T14:48:16;19.80;99.90
27801;DHT22;15181;49.112;11.930;2022-09-11T14:50:43;19.90;99.90
27801;DHT22;15181;49.112;11.930;2022-09-11T14:53:15;19.90;99.90
27801;DHT22;15181;49.112;11.930;2022-09-11T14:55:43;19.90;99.90
27801;DHT22;15181;49.112;11.930;2022-09-11T14:58:10;19.70;99.90
27801;DHT22;15181;49.112;11.930;2022-09-11T15:00:39;19.60;99.90
27801;DHT22;15181;49.112;11.930;2022-09-11T15:03:07;19.60;99.90
27801;DHT22;15181;49.112;11.930;2022-09-11T15:05:33;19.50;99.90
27801;DHT22;15181;49.112;11.930;2022-09-11T15:08:01;19.80;99.90
27801;DHT22;15181;49.112;11.930;2022-09-11T15:10:28;20.00;99.90
27801;DHT22;15181;49.112;11.930;2022-09-11T15:12:57;20.10;99.90
27801;DHT22;15181;49.112;11.930;2022-09-11T15:15:24;20.10;99.90
27801;DHT22;15181;49.112;11.930;2022-09-11T15:17:53;20.10;99.90
27801;DHT22;15181;49.112;11.930;2022-09-11T15:20:21;20.10;99.90
27801;DHT22;15181;49.112;11.930;2022-09-11T15:22:49;19.80;99.90
27801;DHT22;15181;49.112;11.930;2022-09-11T15:25:16;19.70;99.90
27801;DHT22;15181;49.112;11.930;2022-09-11T15:27:43;19.90;99.90
27801;DHT22;15181;49.112;11.930;2022-09-11T15:30:10;20.00;99.90
27801;DHT22;15181;49.112;11.930;2022-09-11T15:32:37;19.90;99.90
27801;DHT22;15181;49.112;11.930;2022-09-11T15:35:06;19.90;99.90
27801;DHT22;15181;49.112;11.930;2022-09-11T15:37:33;19.80;99.90
27801;DHT22;15181;49.112;11.930;2022-09-11T15:40:00;19.60;99.90
27801;DHT22;15181;49.112;11.930;2022-09-11T15:42:26;19.70;99.90
27801;DHT22;15181;49.112;11.930;2022-09-11T15:44:53;19.70;99.90